TNR weather

Ivato Airport
Antananarivo, Antananarivo, Madagascar

Public forecast

Using degrees Celsius for public forecast. Weather courtesy of forecast.io.

METAR (pilot weather report)

Retrieved 2019/03/25 20:30 UTC (0 seconds ago):

FMMI 252030Z 06008KT 8000 -RA FEW017CB BKN020 20/19 Q1017 TEMPO 4000 TSRA

TAF (pilot weather forecast)

Retrieved 2019/03/25 18:11 UTC (2 hours ago):

TAF FMMI 251700Z 2518/2624 VRB05KT 9999 SCT017CB SCT020 PROB30 TEMPO 2518/2520 TSRA BECMG 2520/2522 FEW010 BKN020 BECMG 2608/2610 SCT020CB PROB30 TEMPO 2615/2620 4500 TSRA